createdAt,value
2018-11-12T00:01:01.748Z,76.05
2018-11-12T00:03:29.794Z,76.13
2018-11-12T00:05:57.892Z,76.41
2018-11-12T00:08:25.948Z,75.97
2018-11-12T00:10:53.995Z,76.69
2018-11-12T00:13:22.075Z,76.29
2018-11-12T00:15:50.132Z,76.20
2018-11-12T00:18:18.218Z,75.32
2018-11-12T00:20:46.324Z,75.93
2018-11-12T00:23:14.376Z,76.28
2018-11-12T00:25:42.454Z,76.05
2018-11-12T00:28:10.484Z,75.98
2018-11-12T00:30:38.539Z,75.83
2018-11-12T00:33:06.592Z,76.03
2018-11-12T00:35:34.653Z,75.66
2018-11-12T00:38:02.701Z,76.03
2018-11-12T00:40:30.737Z,75.56
2018-11-12T00:42:58.784Z,75.79
2018-11-12T00:45:26.860Z,75.37
2018-11-12T00:47:54.955Z,74.61
2018-11-12T00:50:23.027Z,75.10
2018-11-12T00:52:51.083Z,75.56
2018-11-12T00:55:19.128Z,75.46
2018-11-12T00:57:47.244Z,75.02
2018-11-12T01:00:16.625Z,75.03
2018-11-12T01:02:45.999Z,75.32
2018-11-12T01:05:14.715Z,75.57
2018-11-12T01:07:42.760Z,75.84
2018-11-12T01:10:12.492Z,75.15
2018-11-12T01:12:40.976Z,75.10
2018-11-12T01:15:11.234Z,74.79
2018-11-12T01:17:39.476Z,75.38
2018-11-12T01:20:08.207Z,75.32
2018-11-12T01:22:36.253Z,75.39
2018-11-12T01:25:04.445Z,75.87
2018-11-12T01:27:32.512Z,75.86
2018-11-12T01:30:00.554Z,76.06
2018-11-12T01:32:28.915Z,75.94
2018-11-12T01:34:56.986Z,76.43
2018-11-12T01:37:25.028Z,76.04
2018-11-12T01:39:53.094Z,76.72
2018-11-12T01:42:21.149Z,76.90
2018-11-12T01:44:49.227Z,77.31
2018-11-12T01:47:17.282Z,77.07
2018-11-12T01:49:45.332Z,77.48
2018-11-12T01:52:13.432Z,77.07
2018-11-12T01:54:41.484Z,77.11
2018-11-12T01:57:09.604Z,77.40
2018-11-12T01:59:37.653Z,77.83
2018-11-12T02:02:06.105Z,77.29
2018-11-12T02:04:34.180Z,77.49
2018-11-12T02:07:02.253Z,77.36
2018-11-12T02:09:30.312Z,77.83
2018-11-12T02:11:58.375Z,78.05
2018-11-12T02:14:26.478Z,77.76
2018-11-12T02:16:54.574Z,78.25
2018-11-12T02:19:22.631Z,77.70
2018-11-12T02:21:50.683Z,78.16
2018-11-12T02:24:18.764Z,78.01
2018-11-12T02:26:46.807Z,78.24
2018-11-12T02:29:14.865Z,77.96
2018-11-12T02:31:42.939Z,78.23
2018-11-12T02:34:10.983Z,77.83
2018-11-12T02:36:39.042Z,78.41
2018-11-12T02:39:08.460Z,78.37
2018-11-12T02:41:36.608Z,78.04
2018-11-12T02:44:06.119Z,78.67
2018-11-12T02:46:34.401Z,78.73
2018-11-12T02:49:02.444Z,78.34
2018-11-12T02:51:30.496Z,78.16
2018-11-12T02:53:58.544Z,78.45
2018-11-12T02:56:26.593Z,78.57
2018-11-12T02:58:54.658Z,78.84
2018-11-12T03:01:23.321Z,78.87
2018-11-12T03:03:52.654Z,78.39
2018-11-12T03:06:20.921Z,78.96
2018-11-12T03:08:48.983Z,77.94
2018-11-12T03:11:17.034Z,78.23
2018-11-12T03:13:45.120Z,78.29
2018-11-12T03:16:13.276Z,78.55
2018-11-12T03:18:41.413Z,78.38
2018-11-12T03:21:09.468Z,78.44
2018-11-12T03:23:37.804Z,78.05
2018-11-12T03:26:05.952Z,77.81
2018-11-12T03:28:34.030Z,77.78
2018-11-12T03:31:02.084Z,77.79
2018-11-12T03:33:30.172Z,77.80
2018-11-12T03:35:58.243Z,77.95
2018-11-12T03:38:26.331Z,78.71
2018-11-12T03:40:54.367Z,78.29
2018-11-12T03:43:22.444Z,78.36
2018-11-12T03:45:50.484Z,79.01
2018-11-12T03:48:18.563Z,79.19
2018-11-12T03:50:46.620Z,78.81
2018-11-12T03:53:14.693Z,79.17
2018-11-12T03:55:42.817Z,78.95
2018-11-12T03:58:10.852Z,79.02
2018-11-12T04:00:38.951Z,79.11
2018-11-12T04:03:07.025Z,79.40
2018-11-12T04:05:35.057Z,78.94
2018-11-12T04:08:03.205Z,78.67
2018-11-12T04:10:31.254Z,78.82
2018-11-12T04:12:59.335Z,79.64
2018-11-12T04:15:27.407Z,79.26
2018-11-12T04:17:55.483Z,79.14
2018-11-12T04:20:24.471Z,79.42
2018-11-12T04:22:56.389Z,79.99
2018-11-12T04:25:24.440Z,79.64
2018-11-12T04:27:52.490Z,79.77
2018-11-12T04:30:20.548Z,80.05
2018-11-12T04:32:48.605Z,79.53
2018-11-12T04:35:16.664Z,79.97
2018-11-12T04:37:44.715Z,79.84
2018-11-12T04:40:15.726Z,79.24
2018-11-12T04:42:44.049Z,79.11
2018-11-12T04:45:13.535Z,79.51
2018-11-12T04:47:42.020Z,79.23
2018-11-12T04:50:11.935Z,79.71
2018-11-12T04:52:40.212Z,79.44
2018-11-12T04:55:09.092Z,79.78
2018-11-12T04:57:37.774Z,79.40
2018-11-12T05:00:08.916Z,79.67
2018-11-12T05:02:36.997Z,79.78
2018-11-12T05:05:05.990Z,80.20
2018-11-12T05:07:34.073Z,80.10
2018-11-12T05:10:02.207Z,79.78
2018-11-12T05:12:30.287Z,79.65
2018-11-12T05:14:58.357Z,79.66
2018-11-12T05:17:26.409Z,80.09
2018-11-12T05:19:54.472Z,79.48
2018-11-12T05:22:22.529Z,80.09
2018-11-12T05:24:50.611Z,79.93
2018-11-12T05:27:18.688Z,79.89
2018-11-12T05:29:46.751Z,79.47
2018-11-12T05:32:14.829Z,79.61
2018-11-12T05:34:42.917Z,80.08
2018-11-12T05:37:11.012Z,80.25
2018-11-12T05:39:39.079Z,80.52
2018-11-12T05:42:07.156Z,80.49
2018-11-12T05:44:35.235Z,80.12
2018-11-12T05:47:03.289Z,79.97
2018-11-12T05:49:31.356Z,80.17
2018-11-12T05:51:59.705Z,80.35
2018-11-12T05:54:27.788Z,80.67
2018-11-12T05:56:55.843Z,81.48
2018-11-12T05:59:23.916Z,81.12
2018-11-12T06:01:52.012Z,80.87
2018-11-12T06:04:20.128Z,81.34
2018-11-12T06:06:48.388Z,81.28
2018-11-12T06:09:16.466Z,81.62
2018-11-12T06:11:44.571Z,81.83
2018-11-12T06:14:12.625Z,81.82
2018-11-12T06:16:40.710Z,81.52
2018-11-12T06:19:08.784Z,81.45
2018-11-12T06:21:36.837Z,81.57
2018-11-12T06:24:05.479Z,81.59
2018-11-12T06:26:33.563Z,82.06
2018-11-12T06:29:01.621Z,82.05
2018-11-12T06:31:29.680Z,82.06
2018-11-12T06:33:57.743Z,81.90
2018-11-12T06:36:25.797Z,81.95
2018-11-12T06:38:54.280Z,82.06
2018-11-12T06:41:22.661Z,82.00
2018-11-12T06:43:50.730Z,82.02
2018-11-12T06:46:18.873Z,82.45
2018-11-12T06:48:46.949Z,82.04
2018-11-12T06:51:15.032Z,81.98
2018-11-12T06:53:43.078Z,82.39
2018-11-12T06:56:11.166Z,82.53
2018-11-12T06:58:39.287Z,82.23
2018-11-12T07:01:07.415Z,82.26
2018-11-12T07:03:35.547Z,82.29
2018-11-12T07:06:03.637Z,82.19
2018-11-12T07:08:31.705Z,82.05
2018-11-12T07:10:59.819Z,81.79
2018-11-12T07:13:27.890Z,81.39
2018-11-12T07:15:55.970Z,81.87
2018-11-12T07:18:24.088Z,82.04
2018-11-12T07:20:52.168Z,81.87
2018-11-12T07:23:20.245Z,81.29
2018-11-12T07:25:48.323Z,81.36
2018-11-12T07:28:16.400Z,81.58
2018-11-12T07:30:44.549Z,81.96
2018-11-12T07:33:12.568Z,81.54
2018-11-12T07:35:40.640Z,81.86
2018-11-12T07:38:08.704Z,81.41
2018-11-12T07:40:36.785Z,82.08
2018-11-12T07:43:04.860Z,81.93
2018-11-12T07:45:32.948Z,82.64
2018-11-12T07:48:01.097Z,81.76
2018-11-12T07:50:30.366Z,81.51
2018-11-12T07:52:58.432Z,81.46
2018-11-12T07:55:27.730Z,80.91
2018-11-12T07:57:56.500Z,80.76
2018-11-12T08:00:25.821Z,81.30
2018-11-12T08:02:59.031Z,81.04
2018-11-12T08:05:27.040Z,81.86
2018-11-12T08:07:55.138Z,81.68
2018-11-12T08:10:23.290Z,81.74
2018-11-12T08:12:51.376Z,81.44
2018-11-12T08:15:20.092Z,81.31
2018-11-12T08:17:48.372Z,81.46
2018-11-12T08:20:17.541Z,80.96
2018-11-12T08:22:46.745Z,80.06
2018-11-12T08:25:14.829Z,80.62
2018-11-12T08:27:43.512Z,80.36
2018-11-12T08:30:13.950Z,80.49
2018-11-12T08:32:42.626Z,80.46
2018-11-12T08:35:10.781Z,79.87
2018-11-12T08:37:38.877Z,79.92
2018-11-12T08:40:09.174Z,80.01
2018-11-12T08:42:37.144Z,79.51
2018-11-12T08:45:06.527Z,80.15
2018-11-12T08:47:35.012Z,79.76
2018-11-12T08:50:03.139Z,79.11
2018-11-12T08:52:31.188Z,79.78
2018-11-12T08:54:59.463Z,79.84
2018-11-12T08:57:27.352Z,79.44
2018-11-12T08:59:55.439Z,79.38
2018-11-12T09:02:23.531Z,79.63
2018-11-12T09:04:51.591Z,79.80
2018-11-12T09:07:19.733Z,79.75
2018-11-12T09:09:47.767Z,79.71
2018-11-12T09:12:15.821Z,79.55
2018-11-12T09:14:43.911Z,79.86
2018-11-12T09:17:11.968Z,79.83
2018-11-12T09:19:40.060Z,79.80
2018-11-12T09:22:08.133Z,79.63
2018-11-12T09:24:36.260Z,79.90
2018-11-12T09:27:04.373Z,79.82
2018-11-12T09:29:32.483Z,79.91
2018-11-12T09:32:00.473Z,80.37
2018-11-12T09:34:28.533Z,80.25
2018-11-12T09:36:56.641Z,80.07
2018-11-12T09:39:24.657Z,80.08
2018-11-12T09:41:52.733Z,80.16
2018-11-12T09:44:20.920Z,80.37
2018-11-12T09:46:48.868Z,80.63
2018-11-12T09:49:16.943Z,80.30
2018-11-12T09:51:45.072Z,80.32
2018-11-12T09:54:13.251Z,80.86
2018-11-12T09:56:41.251Z,80.51
2018-11-12T09:59:09.348Z,80.48
2018-11-12T10:01:37.875Z,80.82
2018-11-12T10:04:06.771Z,80.68
2018-11-12T10:06:34.846Z,80.64
2018-11-12T10:09:04.818Z,80.48
2018-11-12T10:11:33.858Z,80.20
2018-11-12T10:14:01.824Z,80.11
2018-11-12T10:16:29.189Z,80.32
2018-11-12T10:18:54.268Z,80.80
2018-11-12T10:21:22.313Z,80.93
2018-11-12T10:23:50.428Z,80.78
2018-11-12T10:26:18.551Z,80.50
2018-11-12T10:28:46.593Z,80.06
2018-11-12T10:31:14.663Z,80.41
2018-11-12T10:33:42.708Z,80.69
2018-11-12T10:36:11.116Z,80.81
2018-11-12T10:38:39.215Z,80.27
2018-11-12T10:41:07.361Z,80.25
2018-11-12T10:43:35.378Z,80.96
2018-11-12T10:46:03.450Z,81.03
2018-11-12T10:48:31.594Z,81.08
2018-11-12T10:51:05.032Z,81.20
2018-11-12T10:53:27.784Z,81.46
2018-11-12T10:55:55.968Z,81.43
2018-11-12T10:58:23.893Z,81.50
2018-11-12T11:00:57.381Z,81.55
2018-11-12T11:03:30.976Z,81.73
2018-11-12T11:05:59.357Z,81.61
2018-11-12T11:08:27.697Z,80.96
2018-11-12T11:10:55.780Z,81.43
2018-11-12T11:13:23.841Z,81.46
2018-11-12T11:15:51.902Z,81.39
2018-11-12T11:18:19.948Z,81.07
2018-11-12T11:20:48.017Z,81.64
2018-11-12T11:23:16.115Z,81.68
2018-11-12T11:25:44.224Z,81.15
2018-11-12T11:28:12.228Z,81.96
2018-11-12T11:30:40.301Z,81.89
2018-11-12T11:33:08.368Z,81.81
2018-11-12T11:35:36.440Z,81.58
2018-11-12T11:38:04.536Z,82.11
2018-11-12T11:40:32.642Z,81.97
2018-11-12T11:43:00.696Z,81.97
2018-11-12T11:45:28.784Z,81.64
2018-11-12T11:47:56.957Z,81.89
2018-11-12T11:50:26.314Z,82.01
2018-11-12T11:52:54.282Z,82.82
2018-11-12T11:55:23.412Z,82.16
2018-11-12T11:57:51.948Z,82.60
2018-11-12T12:00:22.396Z,82.47
2018-11-12T12:02:51.503Z,82.46
2018-11-12T12:05:20.175Z,82.35
2018-11-12T12:07:48.441Z,82.60
2018-11-12T12:10:17.043Z,82.03
2018-11-12T12:12:45.913Z,82.58
2018-11-12T12:15:15.320Z,82.02
2018-11-12T12:17:43.404Z,82.45
2018-11-12T12:20:15.318Z,82.71
2018-11-12T12:22:43.415Z,82.02
2018-11-12T12:25:12.721Z,82.80
2018-11-12T12:27:40.976Z,82.17
2018-11-12T12:30:11.127Z,82.51
2018-11-12T12:32:39.200Z,83.22
2018-11-12T12:35:08.077Z,82.71
2018-11-12T12:37:36.202Z,82.97
2018-11-12T12:40:04.521Z,82.43
2018-11-12T12:42:32.587Z,82.92
2018-11-12T12:45:00.856Z,82.30
2018-11-12T12:47:28.774Z,82.47
2018-11-12T12:49:56.836Z,82.34
2018-11-12T12:52:24.895Z,82.34
2018-11-12T12:54:52.952Z,82.40
2018-11-12T12:57:21.042Z,83.47
2018-11-12T12:59:49.146Z,83.12
2018-11-12T13:02:17.279Z,82.99
2018-11-12T13:04:45.340Z,82.88
2018-11-12T13:07:13.393Z,83.15
2018-11-12T13:09:41.432Z,82.26
2018-11-12T13:12:09.512Z,82.70
2018-11-12T13:14:37.674Z,82.31
2018-11-12T13:17:05.848Z,82.59
2018-11-12T13:19:33.916Z,82.21
2018-11-12T13:22:02.004Z,82.64
2018-11-12T13:24:30.400Z,82.33
2018-11-12T13:26:58.489Z,82.48
2018-11-12T13:29:26.630Z,82.24
2018-11-12T13:31:54.700Z,82.48
2018-11-12T13:34:22.765Z,82.46
2018-11-12T13:36:50.841Z,82.08
2018-11-12T13:39:18.967Z,82.36
2018-11-12T13:41:47.033Z,82.42
2018-11-12T13:44:15.128Z,82.12
2018-11-12T13:46:48.713Z,81.90
2018-11-12T13:49:16.785Z,81.98
2018-11-12T13:51:44.894Z,82.02
2018-11-12T13:54:12.948Z,81.73
2018-11-12T13:56:41.033Z,81.98
2018-11-12T13:59:09.205Z,82.38
2018-11-12T14:01:37.275Z,81.72
2018-11-12T14:04:05.466Z,81.55
2018-11-12T14:06:33.529Z,82.11
2018-11-12T14:09:01.598Z,81.70
2018-11-12T14:11:29.657Z,81.87
2018-11-12T14:13:58.065Z,81.70
2018-11-12T14:16:26.138Z,81.64
2018-11-12T14:18:54.261Z,82.05
2018-11-12T14:21:22.475Z,82.09
2018-11-12T14:23:50.445Z,81.71
2018-11-12T14:26:18.663Z,81.77
2018-11-12T14:28:46.907Z,81.81
2018-11-12T14:31:14.980Z,81.76
2018-11-12T14:33:43.106Z,82.11
2018-11-12T14:36:11.298Z,81.80
2018-11-12T14:38:39.344Z,81.58
2018-11-12T14:41:07.784Z,81.44
2018-11-12T14:43:35.872Z,81.69
2018-11-12T14:46:03.981Z,81.85
2018-11-12T14:48:32.053Z,81.67
2018-11-12T14:51:00.187Z,81.08
2018-11-12T14:53:28.225Z,81.22
2018-11-12T14:55:56.313Z,81.27
2018-11-12T14:58:24.453Z,81.54
2018-11-12T15:00:52.529Z,81.54
2018-11-12T15:03:20.596Z,81.45
2018-11-12T15:05:48.668Z,81.50
2018-11-12T15:08:16.777Z,81.41
2018-11-12T15:10:44.839Z,81.02
2018-11-12T15:13:12.894Z,81.54
2018-11-12T15:15:40.973Z,81.31
2018-11-12T15:18:09.276Z,81.38
2018-11-12T15:20:37.367Z,81.12
2018-11-12T15:23:05.693Z,81.23
2018-11-12T15:25:33.791Z,81.60
2018-11-12T15:28:01.849Z,81.36
2018-11-12T15:30:29.957Z,81.31
2018-11-12T15:32:58.036Z,81.02
2018-11-12T15:35:26.086Z,81.13
2018-11-12T15:37:54.145Z,81.21
2018-11-12T15:40:22.197Z,81.04
2018-11-12T15:42:50.250Z,81.14
2018-11-12T15:45:20.817Z,81.36
2018-11-12T15:47:49.299Z,81.40
2018-11-12T15:50:35.609Z,81.37
2018-11-12T15:53:03.668Z,80.74
2018-11-12T15:55:31.752Z,80.91
2018-11-12T15:57:59.841Z,81.02
2018-11-12T16:00:27.892Z,81.26
2018-11-12T16:02:56.003Z,81.20
2018-11-12T16:05:24.086Z,80.97
2018-11-12T16:07:52.133Z,81.10
2018-11-12T16:10:21.172Z,81.44
2018-11-12T16:12:49.253Z,81.23
2018-11-12T16:15:18.672Z,81.28
2018-11-12T16:17:46.741Z,81.20
2018-11-12T16:20:19.316Z,81.00
2018-11-12T16:22:48.299Z,81.36
2018-11-12T16:25:16.893Z,81.16
2018-11-12T16:27:45.066Z,81.21
2018-11-12T16:30:13.637Z,81.11
2018-11-12T16:32:42.274Z,81.31
2018-11-12T16:35:13.068Z,81.27
2018-11-12T16:37:41.248Z,81.46
2018-11-12T16:40:09.397Z,81.10
2018-11-12T16:42:38.039Z,81.15
2018-11-12T16:45:06.121Z,81.04
2018-11-12T16:47:34.189Z,81.21
2018-11-12T16:50:02.272Z,81.28
2018-11-12T16:52:30.335Z,81.25
2018-11-12T16:54:58.444Z,80.97
2018-11-12T16:57:26.551Z,81.32
2018-11-12T16:59:54.596Z,80.92
2018-11-12T17:02:22.667Z,81.21
2018-11-12T17:04:50.805Z,81.31
2018-11-12T17:07:18.875Z,81.05
2018-11-12T17:09:47.037Z,81.09
2018-11-12T17:12:15.120Z,81.06
2018-11-12T17:14:43.183Z,80.70
2018-11-12T17:17:11.272Z,81.02
2018-11-12T17:19:39.327Z,80.99
2018-11-12T17:22:07.437Z,80.75
2018-11-12T17:24:35.496Z,80.78
2018-11-12T17:27:03.549Z,80.77
2018-11-12T17:29:31.619Z,80.78
2018-11-12T17:31:59.716Z,80.27
2018-11-12T17:34:27.798Z,80.50
2018-11-12T17:36:55.857Z,80.72
2018-11-12T17:39:23.967Z,80.81
2018-11-12T17:41:52.018Z,80.97
2018-11-12T17:44:20.080Z,80.46
2018-11-12T17:46:48.124Z,80.82
2018-11-12T17:49:16.369Z,81.06
2018-11-12T17:51:44.433Z,80.76
2018-11-12T17:54:12.599Z,80.53
2018-11-12T17:56:40.636Z,80.37
2018-11-12T17:59:08.704Z,80.68
2018-11-12T18:01:37.117Z,80.49
2018-11-12T18:04:05.237Z,80.46
2018-11-12T18:06:33.309Z,80.23
2018-11-12T18:09:01.393Z,80.40
2018-11-12T18:11:29.488Z,80.33
2018-11-12T18:13:57.638Z,80.32
2018-11-12T18:16:25.759Z,80.42
2018-11-12T18:18:53.851Z,80.82
2018-11-12T18:21:21.956Z,80.75
2018-11-12T18:23:50.041Z,81.19
2018-11-12T18:26:18.140Z,81.00
2018-11-12T18:28:46.264Z,80.76
2018-11-12T18:31:14.734Z,81.16
2018-11-12T18:33:42.451Z,80.76
2018-11-12T18:36:10.583Z,80.74
2018-11-12T18:38:38.668Z,80.35
2018-11-12T18:41:06.805Z,80.31
2018-11-12T18:43:34.967Z,80.38
2018-11-12T18:46:03.136Z,80.54
2018-11-12T18:48:31.255Z,80.77
2018-11-12T18:50:59.347Z,80.52
2018-11-12T18:53:27.461Z,80.34
2018-11-12T18:55:55.608Z,80.34
2018-11-12T18:58:23.693Z,79.72
2018-11-12T19:00:51.788Z,80.44
2018-11-12T19:03:20.228Z,80.28
2018-11-12T19:05:48.339Z,79.86
2018-11-12T19:08:16.447Z,80.21
2018-11-12T19:10:44.539Z,79.76
2018-11-12T19:13:12.644Z,79.84
2018-11-12T19:15:40.812Z,79.82
2018-11-12T19:18:10.814Z,79.53
2018-11-12T19:20:38.879Z,79.93
2018-11-12T19:23:07.077Z,79.63
2018-11-12T19:25:35.149Z,79.69
2018-11-12T19:28:03.256Z,79.32
2018-11-12T19:30:31.396Z,79.72
2018-11-12T19:32:59.534Z,79.50
2018-11-12T19:35:29.028Z,81.33
2018-11-12T19:37:57.096Z,80.55
2018-11-12T19:40:26.494Z,79.94
2018-11-12T19:42:55.164Z,80.42
2018-11-12T19:45:23.284Z,79.41
2018-11-12T19:47:52.048Z,79.81
2018-11-12T19:50:21.327Z,80.14
2018-11-12T19:52:50.518Z,79.93
2018-11-12T19:55:18.608Z,79.78
2018-11-12T19:57:47.487Z,79.72
2018-11-12T20:00:17.747Z,79.95
2018-11-12T20:02:47.006Z,79.98
2018-11-12T20:05:15.085Z,79.76
2018-11-12T20:07:43.737Z,80.35
2018-11-12T20:10:13.552Z,80.34
2018-11-12T20:12:41.845Z,79.81
2018-11-12T20:15:10.964Z,79.90
2018-11-12T20:17:39.391Z,80.04
2018-11-12T20:20:11.283Z,79.73
2018-11-12T20:22:39.393Z,79.80
2018-11-12T20:25:08.375Z,79.14
2018-11-12T20:27:36.610Z,79.40
2018-11-12T20:30:05.333Z,79.38
2018-11-12T20:32:33.512Z,79.11
2018-11-12T20:35:01.620Z,79.98
2018-11-12T20:37:29.700Z,79.36
2018-11-12T20:39:57.764Z,79.48
2018-11-12T20:42:25.959Z,79.35
2018-11-12T20:44:54.028Z,79.66
2018-11-12T20:47:22.092Z,79.54
2018-11-12T20:49:50.165Z,79.64
2018-11-12T20:52:18.253Z,79.15
2018-11-12T20:54:46.328Z,79.54
2018-11-12T20:57:14.407Z,79.38
2018-11-12T20:59:42.480Z,79.62
2018-11-12T21:02:10.575Z,79.98
2018-11-12T21:04:38.767Z,79.49
2018-11-12T21:07:06.868Z,79.35
2018-11-12T21:09:34.993Z,79.50
2018-11-12T21:12:03.052Z,79.21
2018-11-12T21:14:31.169Z,79.01
2018-11-12T21:16:59.239Z,79.23
2018-11-12T21:19:27.432Z,79.68
2018-11-12T21:21:55.434Z,79.12
2018-11-12T21:24:23.530Z,79.37
2018-11-12T21:26:51.647Z,79.55
2018-11-12T21:29:19.724Z,79.32
2018-11-12T21:31:47.817Z,79.20
2018-11-12T21:34:15.936Z,79.58
2018-11-12T21:36:44.010Z,78.53
2018-11-12T21:39:13.725Z,79.18
2018-11-12T21:41:41.841Z,79.17
2018-11-12T21:44:09.954Z,78.81
2018-11-12T21:46:38.055Z,78.99
2018-11-12T21:49:06.233Z,78.89
2018-11-12T21:51:34.332Z,78.69
2018-11-12T21:54:02.743Z,78.81
2018-11-12T21:56:30.833Z,78.76
2018-11-12T21:58:58.908Z,78.43
2018-11-12T22:01:27.013Z,78.91
2018-11-12T22:03:55.105Z,78.61
2018-11-12T22:06:23.184Z,78.78
2018-11-12T22:08:51.244Z,78.40
2018-11-12T22:11:19.368Z,79.00
2018-11-12T22:13:47.460Z,78.40
2018-11-12T22:16:15.541Z,78.85
2018-11-12T22:18:43.729Z,78.37
2018-11-12T22:21:11.772Z,78.44
2018-11-12T22:23:39.859Z,78.29
2018-11-12T22:26:08.006Z,78.46
2018-11-12T22:28:36.053Z,77.69
2018-11-12T22:31:04.157Z,78.10
2018-11-12T22:33:32.341Z,78.14
2018-11-12T22:36:00.406Z,77.88
2018-11-12T22:38:28.476Z,77.59
2018-11-12T22:40:56.577Z,77.70
2018-11-12T22:43:24.664Z,78.35
2018-11-12T22:45:52.796Z,78.16
2018-11-12T22:48:20.812Z,78.04
2018-11-12T22:50:48.916Z,78.00
2018-11-12T22:53:17.015Z,78.22
2018-11-12T22:55:45.116Z,77.64
2018-11-12T22:58:13.198Z,78.08
2018-11-12T23:00:43.748Z,78.08
2018-11-12T23:03:11.837Z,77.70
2018-11-12T23:05:39.905Z,77.84
2018-11-12T23:08:07.976Z,77.45
2018-11-12T23:10:36.041Z,78.16
2018-11-12T23:13:04.127Z,77.75
2018-11-12T23:15:32.208Z,77.68
2018-11-12T23:18:01.095Z,78.40
2018-11-12T23:20:29.525Z,78.71
2018-11-12T23:22:57.805Z,78.26
2018-11-12T23:25:25.876Z,77.76
2018-11-12T23:27:54.327Z,77.96
2018-11-12T23:30:23.830Z,78.44
2018-11-12T23:32:51.896Z,78.15
2018-11-12T23:35:22.354Z,78.30
2018-11-12T23:37:50.730Z,77.99
2018-11-12T23:40:18.800Z,78.27
2018-11-12T23:42:47.388Z,78.02
2018-11-12T23:45:15.448Z,78.57
2018-11-12T23:47:43.517Z,78.36
2018-11-12T23:50:15.905Z,78.67
2018-11-12T23:52:44.653Z,78.43
2018-11-12T23:55:13.151Z,78.50
2018-11-12T23:57:41.220Z,78.91
